createdAt,value
2023-11-18T00:00:30.190Z,35.96
2023-11-18T00:01:30.192Z,35.96
2023-11-18T00:02:30.320Z,35.96
2023-11-18T00:03:30.199Z,35.96
2023-11-18T00:04:30.187Z,35.96
2023-11-18T00:05:30.128Z,35.96
2023-11-18T00:06:30.127Z,35.96
2023-11-18T00:07:30.381Z,35.96
2023-11-18T00:08:30.129Z,35.96
2023-11-18T00:09:30.085Z,35.86
2023-11-18T00:10:30.102Z,35.86
2023-11-18T00:11:30.091Z,35.86
2023-11-18T00:12:30.024Z,35.86
2023-11-18T00:13:30.114Z,35.96
2023-11-18T00:14:30.042Z,35.96
2023-11-18T00:15:30.048Z,35.86
2023-11-18T00:16:30.063Z,35.86
2023-11-18T00:17:29.982Z,35.86
2023-11-18T00:18:30.553Z,35.86
2023-11-18T00:19:30.029Z,35.86
2023-11-18T00:20:29.958Z,35.86
2023-11-18T00:21:29.938Z,35.86
2023-11-18T00:22:29.983Z,35.86
2023-11-18T00:23:29.965Z,35.86
2023-11-18T00:24:29.955Z,35.86
2023-11-18T00:25:29.949Z,35.86
2023-11-18T00:26:29.945Z,35.86
2023-11-18T00:27:29.898Z,35.86
2023-11-18T00:28:29.933Z,35.86
2023-11-18T00:29:29.900Z,35.75
2023-11-18T00:30:29.932Z,35.75
2023-11-18T00:31:29.947Z,35.86
2023-11-18T00:32:29.990Z,35.86
2023-11-18T00:33:29.921Z,35.75
2023-11-18T00:34:29.831Z,35.75
2023-11-18T00:35:29.832Z,35.75
2023-11-18T00:36:29.863Z,35.75
2023-11-18T00:37:29.846Z,35.75
2023-11-18T00:38:29.864Z,35.75
2023-11-18T00:39:29.774Z,35.75
2023-11-18T00:40:29.826Z,35.75
2023-11-18T00:41:29.794Z,35.75
2023-11-18T00:42:29.740Z,35.75
2023-11-18T00:43:29.745Z,35.75
2023-11-18T00:44:30.217Z,35.75
2023-11-18T00:45:29.740Z,35.75
2023-11-18T00:46:29.759Z,35.75
2023-11-18T00:47:29.790Z,35.75
2023-11-18T00:48:29.745Z,35.75
2023-11-18T00:49:29.722Z,35.75
2023-11-18T00:50:29.733Z,35.75
2023-11-18T00:51:29.659Z,35.75
2023-11-18T00:52:29.654Z,35.75
2023-11-18T00:53:29.611Z,35.75
2023-11-18T00:54:29.658Z,35.75
2023-11-18T00:55:29.718Z,35.75
2023-11-18T00:56:29.595Z,35.75
2023-11-18T00:57:29.672Z,35.66
2023-11-18T00:58:29.643Z,35.75
2023-11-18T00:59:29.572Z,35.75
2023-11-18T01:00:30.040Z,35.75
2023-11-18T01:01:29.659Z,35.75
2023-11-18T01:02:29.589Z,35.75
2023-11-18T01:03:29.655Z,35.75
2023-11-18T01:04:29.596Z,35.75
2023-11-18T01:05:29.485Z,35.75
2023-11-18T01:06:29.489Z,35.75
2023-11-18T01:07:29.486Z,35.75
2023-11-18T01:08:29.498Z,35.75
2023-11-18T01:09:29.462Z,35.75
2023-11-18T01:10:29.478Z,35.75
2023-11-18T01:11:29.446Z,35.75
2023-11-18T01:12:29.425Z,35.75
2023-11-18T01:13:29.438Z,35.75
2023-11-18T01:14:29.390Z,35.75
2023-11-18T01:15:29.388Z,35.75
2023-11-18T01:16:29.423Z,35.75
2023-11-18T01:17:29.441Z,35.75
2023-11-18T01:18:29.395Z,35.75
2023-11-18T01:19:29.605Z,35.75
2023-11-18T01:20:29.360Z,35.75
2023-11-18T01:21:29.358Z,35.75
2023-11-18T01:22:29.410Z,35.75
2023-11-18T01:23:29.348Z,35.75
2023-11-18T01:24:29.337Z,35.75
2023-11-18T01:25:29.365Z,35.75
2023-11-18T01:26:29.303Z,35.75
2023-11-18T01:27:29.283Z,35.75
2023-11-18T01:28:30.473Z,35.75
2023-11-18T01:29:29.244Z,35.75
2023-11-18T01:30:29.252Z,35.75
2023-11-18T01:31:34.408Z,35.75
2023-11-18T01:32:29.384Z,35.75
2023-11-18T01:33:29.269Z,35.75
2023-11-18T01:34:29.551Z,35.75
2023-11-18T01:35:29.222Z,35.75
2023-11-18T01:36:29.184Z,35.86
2023-11-18T01:37:29.231Z,35.75
2023-11-18T01:38:29.745Z,35.75
2023-11-18T01:39:29.135Z,35.75
2023-11-18T01:40:29.201Z,35.86
2023-11-18T01:41:29.138Z,35.75
2023-11-18T01:42:29.171Z,35.86
2023-11-18T01:43:29.134Z,35.86
2023-11-18T01:44:29.139Z,35.86
2023-11-18T01:45:29.112Z,35.86
2023-11-18T01:46:29.165Z,35.75
2023-11-18T01:47:29.077Z,35.75
2023-11-18T01:48:30.214Z,35.75
2023-11-18T01:49:29.103Z,35.75
2023-11-18T01:50:29.042Z,35.86
2023-11-18T01:51:29.023Z,35.86
2023-11-18T01:52:29.013Z,35.75
2023-11-18T01:53:29.039Z,35.75
2023-11-18T01:54:29.019Z,35.75
2023-11-18T01:55:29.033Z,35.75
2023-11-18T01:56:28.985Z,35.75
2023-11-18T01:57:28.992Z,35.75
2023-11-18T01:58:29.100Z,35.75
2023-11-18T01:59:28.932Z,35.75
2023-11-18T02:00:28.943Z,35.75
2023-11-18T02:01:29.001Z,35.75
2023-11-18T02:02:29.023Z,35.66
2023-11-18T02:03:28.993Z,35.66
2023-11-18T02:04:28.993Z,35.75
2023-11-18T02:05:28.889Z,35.66
2023-11-18T02:06:29.726Z,35.66
2023-11-18T02:07:29.743Z,35.66
2023-11-18T02:08:28.858Z,35.75
2023-11-18T02:09:28.883Z,35.66
2023-11-18T02:10:28.939Z,35.66
2023-11-18T02:11:28.840Z,35.75
2023-11-18T02:12:28.818Z,35.66
2023-11-18T02:13:28.823Z,35.66
2023-11-18T02:14:28.787Z,35.66
2023-11-18T02:15:28.809Z,35.66
2023-11-18T02:16:28.856Z,35.66
2023-11-18T02:17:28.802Z,35.66
2023-11-18T02:18:29.788Z,35.66
2023-11-18T02:19:28.779Z,35.66
2023-11-18T02:20:28.752Z,35.66
2023-11-18T02:21:28.723Z,35.66
2023-11-18T02:22:28.755Z,35.66
2023-11-18T02:23:28.732Z,35.66
2023-11-18T02:24:28.669Z,35.75
2023-11-18T02:25:28.739Z,35.75
2023-11-18T02:26:28.653Z,35.75
2023-11-18T02:27:28.663Z,35.75
2023-11-18T02:28:28.742Z,35.75
2023-11-18T02:29:28.820Z,35.75
2023-11-18T02:30:28.626Z,35.75
2023-11-18T02:31:29.294Z,35.75
2023-11-18T02:32:28.701Z,35.75
2023-11-18T02:33:28.721Z,35.75
2023-11-18T02:34:28.657Z,35.75
2023-11-18T02:35:28.561Z,35.75
2023-11-18T02:36:28.555Z,35.66
2023-11-18T02:37:29.243Z,35.75
2023-11-18T02:38:28.575Z,35.75
2023-11-18T02:39:28.539Z,35.66
2023-11-18T02:40:28.582Z,35.66
2023-11-18T02:41:28.544Z,35.75
2023-11-18T02:42:28.484Z,35.75
2023-11-18T02:43:28.530Z,35.75
2023-11-18T02:44:28.492Z,35.75
2023-11-18T02:45:28.483Z,35.75
2023-11-18T02:46:28.618Z,35.75
2023-11-18T02:47:28.482Z,35.75
2023-11-18T02:48:28.447Z,35.75
2023-11-18T02:49:28.455Z,35.75
2023-11-18T02:50:28.407Z,35.75
2023-11-18T02:51:28.430Z,35.75
2023-11-18T02:52:28.473Z,35.75
2023-11-18T02:53:28.393Z,35.75
2023-11-18T02:54:28.397Z,35.75
2023-11-18T02:55:28.412Z,35.75
2023-11-18T02:56:28.397Z,35.75
2023-11-18T02:57:28.360Z,35.75
2023-11-18T02:58:28.345Z,35.75
2023-11-18T02:59:28.320Z,35.75
2023-11-18T03:00:28.314Z,35.75
2023-11-18T03:01:28.418Z,35.75
2023-11-18T03:02:28.360Z,35.75
2023-11-18T03:03:28.379Z,35.75
2023-11-18T03:04:28.373Z,35.75
2023-11-18T03:05:28.272Z,35.75
2023-11-18T03:06:28.268Z,35.75
2023-11-18T03:07:28.300Z,35.75
2023-11-18T03:08:28.249Z,35.75
2023-11-18T03:09:28.219Z,35.75
2023-11-18T03:10:28.216Z,35.75
2023-11-18T03:11:28.221Z,35.75
2023-11-18T03:12:28.174Z,35.75
2023-11-18T03:13:28.195Z,35.75
2023-11-18T03:14:28.166Z,35.75
2023-11-18T03:15:28.232Z,35.75
2023-11-18T03:16:28.184Z,35.75
2023-11-18T03:17:28.236Z,35.75
2023-11-18T03:18:28.150Z,35.75
2023-11-18T03:19:28.123Z,35.75
2023-11-18T03:20:28.156Z,35.75
2023-11-18T03:21:28.152Z,35.75
2023-11-18T03:22:28.088Z,35.75
2023-11-18T03:23:28.069Z,35.75
2023-11-18T03:24:28.093Z,35.75
2023-11-18T03:25:28.055Z,35.75
2023-11-18T03:26:28.044Z,35.75
2023-11-18T03:27:28.053Z,35.75
2023-11-18T03:28:28.056Z,35.75
2023-11-18T03:29:28.025Z,35.75
2023-11-18T03:30:27.997Z,35.75
2023-11-18T03:31:28.012Z,35.75
2023-11-18T03:32:27.981Z,35.75
2023-11-18T03:33:28.022Z,35.75
2023-11-18T03:34:27.986Z,35.75
2023-11-18T03:35:28.068Z,35.75
2023-11-18T03:36:27.979Z,35.75
2023-11-18T03:37:27.927Z,35.75
2023-11-18T03:38:27.957Z,35.75
2023-11-18T03:39:27.904Z,35.75
2023-11-18T03:40:27.930Z,35.75
2023-11-18T03:41:27.898Z,35.75
2023-11-18T03:42:27.908Z,35.75
2023-11-18T03:43:27.938Z,35.75
2023-11-18T03:44:27.874Z,35.75
2023-11-18T03:45:27.874Z,35.75
2023-11-18T03:46:27.869Z,35.75
2023-11-18T03:47:27.985Z,35.75
2023-11-18T03:48:27.857Z,35.75
2023-11-18T03:49:28.596Z,35.75
2023-11-18T03:50:27.832Z,35.75
2023-11-18T03:51:27.798Z,35.75
2023-11-18T03:52:27.847Z,35.66
2023-11-18T03:53:27.810Z,35.75
2023-11-18T03:54:27.765Z,35.66
2023-11-18T03:55:27.766Z,35.75
2023-11-18T03:56:27.756Z,35.75
2023-11-18T03:57:27.733Z,35.66
2023-11-18T03:58:28.246Z,35.66
2023-11-18T03:59:27.804Z,35.75
2023-11-18T04:00:27.707Z,35.66
2023-11-18T04:01:27.724Z,35.66
2023-11-18T04:02:27.787Z,35.75
2023-11-18T04:03:27.831Z,35.75
2023-11-18T04:04:28.110Z,35.66
2023-11-18T04:05:27.647Z,35.66
2023-11-18T04:06:27.636Z,35.66
2023-11-18T04:07:27.646Z,35.66
2023-11-18T04:08:27.648Z,35.66
2023-11-18T04:09:27.653Z,35.66
2023-11-18T04:10:28.113Z,35.66
2023-11-18T04:11:27.616Z,35.66
2023-11-18T04:12:27.576Z,35.66
2023-11-18T04:13:27.581Z,35.66
2023-11-18T04:14:27.580Z,35.66
2023-11-18T04:15:27.547Z,35.66
2023-11-18T04:16:27.588Z,35.56
2023-11-18T04:17:28.314Z,35.66
2023-11-18T04:18:27.531Z,35.66
2023-11-18T04:19:27.570Z,35.66
2023-11-18T04:20:27.499Z,35.56
2023-11-18T04:21:27.489Z,35.66
2023-11-18T04:22:27.525Z,35.66
2023-11-18T04:23:27.492Z,35.66
2023-11-18T04:24:27.471Z,35.66
2023-11-18T04:25:27.430Z,35.66
2023-11-18T04:26:27.438Z,35.56
2023-11-18T04:27:27.482Z,35.56
2023-11-18T04:28:27.434Z,35.56
2023-11-18T04:29:27.436Z,35.56
2023-11-18T04:30:27.425Z,35.56
2023-11-18T04:31:27.379Z,35.56
2023-11-18T04:32:27.496Z,35.56
2023-11-18T04:33:27.369Z,35.56
2023-11-18T04:34:27.352Z,35.56
2023-11-18T04:35:27.341Z,35.56
2023-11-18T04:36:27.354Z,35.56
2023-11-18T04:37:27.356Z,35.56
2023-11-18T04:38:27.309Z,35.56
2023-11-18T04:39:27.304Z,35.56
2023-11-18T04:40:27.311Z,35.56
2023-11-18T04:41:27.349Z,35.46
2023-11-18T04:42:27.285Z,35.56
2023-11-18T04:43:34.987Z,35.46
2023-11-18T04:44:27.295Z,35.56
2023-11-18T04:45:27.220Z,35.46
2023-11-18T04:46:27.244Z,35.46
2023-11-18T04:47:27.438Z,35.46
2023-11-18T04:48:27.401Z,35.46
2023-11-18T04:49:27.240Z,35.46
2023-11-18T04:50:27.218Z,35.46
2023-11-18T04:51:27.233Z,35.46
2023-11-18T04:52:27.173Z,35.46
2023-11-18T04:53:27.144Z,35.46
2023-11-18T04:54:27.197Z,35.46
2023-11-18T04:55:27.163Z,35.46
2023-11-18T04:56:27.133Z,35.46
2023-11-18T04:57:27.111Z,35.46
2023-11-18T04:58:27.109Z,35.46
2023-11-18T04:59:27.123Z,35.46
2023-11-18T05:00:27.098Z,35.46
2023-11-18T05:01:27.094Z,35.46
2023-11-18T05:02:27.172Z,35.46
2023-11-18T05:03:27.138Z,35.46
2023-11-18T05:04:27.064Z,35.46
2023-11-18T05:05:27.071Z,35.36
2023-11-18T05:06:27.057Z,35.46
2023-11-18T05:07:27.011Z,35.46
2023-11-18T05:08:27.181Z,35.36
2023-11-18T05:09:27.049Z,35.36
2023-11-18T05:10:26.991Z,35.36
2023-11-18T05:11:26.988Z,35.36
2023-11-18T05:12:27.011Z,35.36
2023-11-18T05:13:26.972Z,35.36
2023-11-18T05:14:26.987Z,35.36
2023-11-18T05:15:26.934Z,35.36
2023-11-18T05:16:26.983Z,35.36
2023-11-18T05:17:26.997Z,35.26
2023-11-18T05:18:27.870Z,35.36
2023-11-18T05:19:26.899Z,35.36
2023-11-18T05:20:26.893Z,35.36
2023-11-18T05:21:26.921Z,35.26
2023-11-18T05:22:26.912Z,35.26
2023-11-18T05:23:26.879Z,35.26
2023-11-18T05:24:26.868Z,35.26
2023-11-18T05:25:26.835Z,35.16
2023-11-18T05:26:26.881Z,35.16
2023-11-18T05:27:26.870Z,35.26
2023-11-18T05:28:26.853Z,35.26
2023-11-18T05:29:26.816Z,35.26
2023-11-18T05:30:27.791Z,35.16
2023-11-18T05:31:26.802Z,35.16
2023-11-18T05:32:26.795Z,35.16
2023-11-18T05:33:26.777Z,35.16
2023-11-18T05:34:26.748Z,35.16
2023-11-18T05:35:26.792Z,35.16
2023-11-18T05:36:26.736Z,35.16
2023-11-18T05:37:26.745Z,35.06
2023-11-18T05:38:26.753Z,35.06
2023-11-18T05:39:26.683Z,35.06
2023-11-18T05:40:26.715Z,35.06
2023-11-18T05:41:26.670Z,35.06
2023-11-18T05:42:27.569Z,35.06
2023-11-18T05:43:26.638Z,35.06
2023-11-18T05:44:26.683Z,35.06
2023-11-18T05:45:26.672Z,35.06
2023-11-18T05:46:26.629Z,35.06
2023-11-18T05:47:26.651Z,34.96
2023-11-18T05:48:26.598Z,34.96
2023-11-18T05:49:26.591Z,34.96
2023-11-18T05:50:26.584Z,34.96
2023-11-18T05:51:26.629Z,34.96
2023-11-18T05:52:26.552Z,35.06
2023-11-18T05:53:34.035Z,34.96
2023-11-18T05:54:26.555Z,34.96
2023-11-18T05:55:26.524Z,34.96
2023-11-18T05:56:26.513Z,34.96
2023-11-18T05:57:26.529Z,34.96
2023-11-18T05:58:26.508Z,34.96
2023-11-18T05:59:26.543Z,34.96
2023-11-18T06:00:33.129Z,34.96
2023-11-18T06:01:26.513Z,34.96
2023-11-18T06:02:26.567Z,34.96
2023-11-18T06:03:26.509Z,34.96
2023-11-18T06:04:26.542Z,34.96
2023-11-18T06:05:26.436Z,34.86
2023-11-18T06:06:26.414Z,34.86
2023-11-18T06:07:26.412Z,34.86
2023-11-18T06:08:26.423Z,34.86
2023-11-18T06:09:26.383Z,34.86
2023-11-18T06:10:26.351Z,34.86
2023-11-18T06:11:26.357Z,34.86
2023-11-18T06:12:26.381Z,34.86
2023-11-18T06:13:26.365Z,34.76
2023-11-18T06:14:26.334Z,34.76
2023-11-18T06:15:26.288Z,34.76
2023-11-18T06:16:26.384Z,34.76
2023-11-18T06:17:26.414Z,34.76
2023-11-18T06:18:27.131Z,34.76
2023-11-18T06:19:26.339Z,34.76
2023-11-18T06:20:26.216Z,34.76
2023-11-18T06:21:26.379Z,34.76
2023-11-18T06:22:26.596Z,34.76
2023-11-18T06:23:26.170Z,34.66
2023-11-18T06:24:26.216Z,34.66
2023-11-18T06:25:26.159Z,34.76
2023-11-18T06:26:26.177Z,34.76
2023-11-18T06:27:26.145Z,34.66
2023-11-18T06:28:26.131Z,34.66
2023-11-18T06:29:26.177Z,34.66
2023-11-18T06:30:26.152Z,34.66
2023-11-18T06:31:26.122Z,34.66
2023-11-18T06:32:26.159Z,34.56
2023-11-18T06:33:26.159Z,34.56
2023-11-18T06:34:26.071Z,34.56
2023-11-18T06:35:26.068Z,34.56
2023-11-18T06:36:26.080Z,34.46
2023-11-18T06:37:26.052Z,34.56
2023-11-18T06:38:26.041Z,34.66
2023-11-18T06:39:26.006Z,34.46
2023-11-18T06:40:26.022Z,34.46
2023-11-18T06:41:26.045Z,34.46
2023-11-18T06:42:26.029Z,34.46
2023-11-18T06:43:25.993Z,34.36
2023-11-18T06:44:25.978Z,34.36
2023-11-18T06:45:25.958Z,34.46
2023-11-18T06:46:25.954Z,34.46
2023-11-18T06:47:26.074Z,34.46
2023-11-18T06:48:26.004Z,34.46
2023-11-18T06:49:25.941Z,34.36
2023-11-18T06:50:26.768Z,34.46
2023-11-18T06:51:25.921Z,34.16
2023-11-18T06:52:25.883Z,34.27
2023-11-18T06:53:25.873Z,34.36
2023-11-18T06:54:25.869Z,34.36
2023-11-18T06:55:25.865Z,34.36
2023-11-18T06:56:25.856Z,34.36
2023-11-18T06:57:25.851Z,34.36
2023-11-18T06:58:25.820Z,34.36
2023-11-18T06:59:25.825Z,34.27
2023-11-18T07:00:25.834Z,34.27
2023-11-18T07:01:25.830Z,34.27
2023-11-18T07:02:25.863Z,34.16
2023-11-18T07:03:25.849Z,34.27
2023-11-18T07:04:25.836Z,34.27
2023-11-18T07:05:25.847Z,34.27
2023-11-18T07:06:25.765Z,34.27
2023-11-18T07:07:25.770Z,34.27
2023-11-18T07:08:25.757Z,34.27
2023-11-18T07:09:25.715Z,34.27
2023-11-18T07:10:25.713Z,34.25
2023-11-18T07:11:25.730Z,34.25
2023-11-18T07:12:25.739Z,34.27
2023-11-18T07:14:45.864Z,34.25
2023-11-18T07:15:46.394Z,34.25
2023-11-18T07:16:46.422Z,34.15
2023-11-18T07:17:45.894Z,34.25
2023-11-18T07:18:46.358Z,34.15
2023-11-18T07:19:45.861Z,34.25
2023-11-18T07:20:45.798Z,34.25
2023-11-18T07:21:45.829Z,34.15
2023-11-18T07:22:45.800Z,34.25
2023-11-18T07:23:45.784Z,34.25
2023-11-18T07:24:45.770Z,34.25
2023-11-18T07:25:45.812Z,34.25
2023-11-18T07:26:45.724Z,34.25
2023-11-18T07:27:45.801Z,34.25
2023-11-18T07:28:45.771Z,34.25
2023-11-18T07:29:45.696Z,34.25
2023-11-18T07:30:45.710Z,34.25
2023-11-18T07:31:45.767Z,34.25
2023-11-18T07:32:45.705Z,34.25
2023-11-18T07:33:45.744Z,34.15
2023-11-18T07:34:45.677Z,34.15
2023-11-18T07:35:45.661Z,34.25
2023-11-18T07:36:45.636Z,34.15
2023-11-18T07:37:45.632Z,34.15
2023-11-18T07:38:45.637Z,34.15
2023-11-18T07:39:46.122Z,34.25
2023-11-18T07:40:45.648Z,34.25
2023-11-18T07:41:45.805Z,34.25
2023-11-18T07:42:45.606Z,34.25
2023-11-18T07:43:45.590Z,34.15
2023-11-18T07:44:45.570Z,34.25
2023-11-18T07:45:45.628Z,34.25
2023-11-18T07:46:45.585Z,34.15
2023-11-18T07:47:45.580Z,34.15
2023-11-18T07:48:45.542Z,34.15
2023-11-18T07:49:45.596Z,34.15
2023-11-18T07:50:45.901Z,34.15
2023-11-18T07:51:45.590Z,34.15
2023-11-18T07:52:45.555Z,34.15
2023-11-18T07:53:46.373Z,34.05
2023-11-18T07:54:45.562Z,34.15
2023-11-18T07:55:45.599Z,34.15
2023-11-18T07:56:45.536Z,34.15
2023-11-18T07:57:45.406Z,34.05
2023-11-18T07:58:45.514Z,34.05
2023-11-18T07:59:45.404Z,34.15
2023-11-18T08:00:45.433Z,34.05
2023-11-18T08:01:46.435Z,34.15
2023-11-18T08:02:46.426Z,34.25
2023-11-18T08:03:45.456Z,34.25
2023-11-18T08:04:45.418Z,34.13
2023-11-18T08:05:45.401Z,34.05
2023-11-18T08:06:45.375Z,34.13
2023-11-18T08:07:45.410Z,34.15
2023-11-18T08:08:45.317Z,34.15
2023-11-18T08:09:45.336Z,34.15
2023-11-18T08:10:45.365Z,34.13
2023-11-18T08:11:45.315Z,34.15
2023-11-18T08:12:46.203Z,34.15
2023-11-18T08:13:45.942Z,34.15
2023-11-18T08:14:46.879Z,34.13
2023-11-18T08:15:45.251Z,34.13
2023-11-18T08:16:45.399Z,34.13
2023-11-18T08:17:45.290Z,34.03
2023-11-18T08:18:45.215Z,34.13
2023-11-18T08:19:45.257Z,34.13
2023-11-18T08:20:45.206Z,34.13
2023-11-18T08:21:45.194Z,34.13
2023-11-18T08:22:45.772Z,34.13
2023-11-18T08:23:45.166Z,34.13
2023-11-18T08:24:45.155Z,34.13
2023-11-18T08:25:45.171Z,34.13
2023-11-18T08:26:45.192Z,34.13
2023-11-18T08:27:45.136Z,34.13
2023-11-18T08:28:45.164Z,34.13
2023-11-18T08:29:45.111Z,34.23
2023-11-18T08:30:45.095Z,34.23
2023-11-18T08:31:45.167Z,34.23
2023-11-18T08:32:45.360Z,34.23
2023-11-18T08:33:45.921Z,34.23
2023-11-18T08:34:45.093Z,34.23
2023-11-18T08:35:45.083Z,34.23
2023-11-18T08:36:45.069Z,34.23
2023-11-18T08:37:45.290Z,34.23
2023-11-18T08:38:45.046Z,34.33
2023-11-18T08:39:45.253Z,34.33
2023-11-18T08:40:45.029Z,34.33
2023-11-18T08:41:45.714Z,34.33
2023-11-18T08:42:45.005Z,34.33
2023-11-18T08:43:45.924Z,34.43
2023-11-18T08:44:45.062Z,34.33
2023-11-18T08:45:45.065Z,34.33
2023-11-18T08:46:45.912Z,34.43
2023-11-18T08:47:44.998Z,34.43
2023-11-18T08:48:44.928Z,34.53
2023-11-18T08:49:44.957Z,34.43
2023-11-18T08:50:44.925Z,34.53
2023-11-18T08:51:44.905Z,34.63
2023-11-18T08:52:45.809Z,34.53
2023-11-18T08:53:44.911Z,34.53
2023-11-18T08:54:44.858Z,34.53
2023-11-18T08:55:44.927Z,34.53
2023-11-18T08:56:44.840Z,34.63
2023-11-18T08:57:44.816Z,34.63
2023-11-18T08:58:44.889Z,34.63
2023-11-18T08:59:44.838Z,34.63
2023-11-18T09:00:45.379Z,34.73
2023-11-18T09:01:44.850Z,34.73
2023-11-18T09:02:52.541Z,34.73
2023-11-18T09:03:45.117Z,34.73
2023-11-18T09:04:44.802Z,34.73
2023-11-18T09:05:44.780Z,34.73
2023-11-18T09:06:44.748Z,34.73
2023-11-18T09:07:44.756Z,34.73
2023-11-18T09:08:44.717Z,34.83
2023-11-18T09:09:45.394Z,34.73
2023-11-18T09:10:44.770Z,34.83
2023-11-18T09:11:45.407Z,34.92
2023-11-18T09:12:44.676Z,34.83
2023-11-18T09:13:44.711Z,35.03
2023-11-18T09:14:44.666Z,34.92
2023-11-18T09:15:44.659Z,34.92
2023-11-18T09:16:44.707Z,34.92
2023-11-18T09:17:44.693Z,34.92
2023-11-18T09:18:44.684Z,35.03
2023-11-18T09:19:45.935Z,34.92
2023-11-18T09:20:44.599Z,34.92
2023-11-18T09:21:45.384Z,34.92
2023-11-18T09:22:45.292Z,34.92
2023-11-18T09:23:44.560Z,34.92
2023-11-18T09:24:44.594Z,35.03
2023-11-18T09:25:44.606Z,35.03
2023-11-18T09:26:44.520Z,35.03
2023-11-18T09:27:44.521Z,35.03
2023-11-18T09:28:44.546Z,35.03
2023-11-18T09:29:44.563Z,34.92
2023-11-18T09:30:44.486Z,34.92
2023-11-18T09:31:44.564Z,35.03
2023-11-18T09:32:44.581Z,35.03
2023-11-18T09:33:44.487Z,34.92
2023-11-18T09:34:44.512Z,34.92
2023-11-18T09:35:44.448Z,35.03
2023-11-18T09:36:44.441Z,34.92
2023-11-18T09:37:44.498Z,34.92
2023-11-18T09:38:46.049Z,34.92
2023-11-18T09:39:44.443Z,34.92
2023-11-18T09:40:44.464Z,34.83
2023-11-18T09:41:44.462Z,34.83
2023-11-18T09:42:44.368Z,34.83
2023-11-18T09:43:44.776Z,34.83
2023-11-18T09:44:44.369Z,34.83
2023-11-18T09:45:44.351Z,34.83
2023-11-18T09:46:44.397Z,34.92
2023-11-18T09:47:44.332Z,34.83
2023-11-18T09:48:44.313Z,34.92
2023-11-18T09:49:44.362Z,35.03
2023-11-18T09:50:44.308Z,35.03
2023-11-18T09:51:44.327Z,35.03
2023-11-18T09:52:44.318Z,35.03
2023-11-18T09:53:44.320Z,34.92
2023-11-18T09:54:44.270Z,34.92
2023-11-18T09:55:44.909Z,34.92
2023-11-18T09:56:44.266Z,34.83
2023-11-18T09:57:44.215Z,34.83
2023-11-18T09:58:44.264Z,34.92
2023-11-18T09:59:44.209Z,34.92
2023-11-18T10:00:44.185Z,34.92
2023-11-18T10:01:44.403Z,35.03
2023-11-18T10:02:44.332Z,34.92
2023-11-18T10:03:44.293Z,34.92
2023-11-18T10:04:44.244Z,34.92
2023-11-18T10:05:44.174Z,34.83
2023-11-18T10:06:44.143Z,34.83
2023-11-18T10:07:44.239Z,34.83
2023-11-18T10:08:44.123Z,34.83
2023-11-18T10:09:44.113Z,34.83
2023-11-18T10:10:44.159Z,34.83
2023-11-18T10:11:44.083Z,34.83
2023-11-18T10:12:44.085Z,34.83
2023-11-18T10:13:44.100Z,34.92
2023-11-18T10:14:44.092Z,34.92
2023-11-18T10:15:44.035Z,34.83
2023-11-18T10:16:44.050Z,34.92
2023-11-18T10:17:44.049Z,34.92
2023-11-18T10:18:44.040Z,34.92
2023-11-18T10:19:44.039Z,34.92
2023-11-18T10:20:44.009Z,34.83
2023-11-18T10:21:44.915Z,34.92
2023-11-18T10:22:44.026Z,34.92
2023-11-18T10:23:43.987Z,34.92
2023-11-18T10:24:43.972Z,34.92
2023-11-18T10:25:43.993Z,34.92
2023-11-18T10:26:43.936Z,34.92
2023-11-18T10:27:43.956Z,34.92
2023-11-18T10:28:43.988Z,34.92
2023-11-18T10:29:43.904Z,34.92
2023-11-18T10:30:43.889Z,34.92
2023-11-18T10:31:43.907Z,34.92
2023-11-18T10:32:43.894Z,34.92
2023-11-18T10:33:43.977Z,34.92
2023-11-18T10:34:43.948Z,34.92
2023-11-18T10:35:43.869Z,34.83
2023-11-18T10:36:43.853Z,34.83
2023-11-18T10:37:43.838Z,34.83
2023-11-18T10:38:43.853Z,34.83
2023-11-18T10:39:43.819Z,34.83
2023-11-18T10:40:43.834Z,34.83
2023-11-18T10:41:43.762Z,34.83
2023-11-18T10:42:43.805Z,34.83
2023-11-18T10:43:43.823Z,34.83
2023-11-18T10:44:43.760Z,34.83
2023-11-18T10:45:45.836Z,34.83
2023-11-18T10:46:43.816Z,34.83
2023-11-18T10:47:43.769Z,34.92
2023-11-18T10:48:43.723Z,34.83
2023-11-18T10:49:44.412Z,34.83
2023-11-18T10:50:43.750Z,34.83
2023-11-18T10:51:43.732Z,34.83
2023-11-18T10:52:43.730Z,34.73
2023-11-18T10:53:43.669Z,34.73
2023-11-18T10:54:43.643Z,34.63
2023-11-18T10:55:43.728Z,34.73
2023-11-18T10:56:43.640Z,34.63
2023-11-18T10:57:44.200Z,34.73
2023-11-18T10:58:43.632Z,34.63
2023-11-18T10:59:43.595Z,34.63
2023-11-18T11:00:43.647Z,34.73
2023-11-18T11:01:44.540Z,34.73
2023-11-18T11:02:43.750Z,34.73
2023-11-18T11:03:43.574Z,34.73
2023-11-18T11:04:43.610Z,34.83
2023-11-18T11:05:43.652Z,34.73
2023-11-18T11:06:43.561Z,34.83
2023-11-18T11:07:43.596Z,34.83
2023-11-18T11:08:43.526Z,34.83
2023-11-18T11:09:43.537Z,34.83
2023-11-18T11:10:43.660Z,34.83
2023-11-18T11:11:43.595Z,34.83
2023-11-18T11:12:43.530Z,34.92
2023-11-18T11:13:43.561Z,34.92
2023-11-18T11:14:43.461Z,34.92
2023-11-18T11:15:51.644Z,34.92
2023-11-18T11:16:43.468Z,34.92
2023-11-18T11:17:43.517Z,34.92
2023-11-18T11:18:43.488Z,34.83
2023-11-18T11:19:43.490Z,34.83
2023-11-18T11:20:43.460Z,34.83
2023-11-18T11:21:43.899Z,34.83
2023-11-18T11:22:43.394Z,34.83
2023-11-18T11:23:43.369Z,34.73
2023-11-18T11:24:43.426Z,34.73
2023-11-18T11:25:43.392Z,34.73
2023-11-18T11:26:43.402Z,34.63
2023-11-18T11:27:43.359Z,34.73
2023-11-18T11:28:44.032Z,34.73
2023-11-18T11:29:43.322Z,34.63
2023-11-18T11:30:43.326Z,34.63
2023-11-18T11:31:43.423Z,34.73
2023-11-18T11:32:43.325Z,34.63
2023-11-18T11:33:43.298Z,34.73
2023-11-18T11:34:43.256Z,34.73
2023-11-18T11:35:43.266Z,34.73
2023-11-18T11:36:43.236Z,34.63
2023-11-18T11:37:43.272Z,34.63
2023-11-18T11:38:43.756Z,34.73
2023-11-18T11:39:43.205Z,34.63
2023-11-18T11:40:43.242Z,34.63
2023-11-18T11:41:43.195Z,34.63
2023-11-18T11:42:43.215Z,34.53
2023-11-18T11:43:43.165Z,34.63
2023-11-18T11:44:43.173Z,34.53
2023-11-18T11:45:43.200Z,34.53
2023-11-18T11:46:43.280Z,34.53
2023-11-18T11:47:43.304Z,34.63
2023-11-18T11:48:43.170Z,34.53
2023-11-18T11:49:43.154Z,34.63
2023-11-18T11:50:43.187Z,34.53
2023-11-18T11:51:43.082Z,34.53
2023-11-18T11:52:43.095Z,34.53
2023-11-18T11:53:43.161Z,34.53
2023-11-18T11:54:43.107Z,34.53
2023-11-18T11:55:43.078Z,34.53
2023-11-18T11:56:43.077Z,34.53
2023-11-18T11:57:43.095Z,34.53
2023-11-18T11:58:43.065Z,34.53
2023-11-18T11:59:44.400Z,34.53
2023-11-18T12:00:42.994Z,34.53
2023-11-18T12:01:43.040Z,34.53
2023-11-18T12:02:43.109Z,34.53
2023-11-18T12:03:44.414Z,34.53
2023-11-18T12:04:43.000Z,34.53
2023-11-18T12:05:42.997Z,34.53
2023-11-18T12:06:43.013Z,34.63
2023-11-18T12:07:42.966Z,34.53
2023-11-18T12:08:42.958Z,34.53
2023-11-18T12:09:42.949Z,34.53
2023-11-18T12:10:42.900Z,34.53
2023-11-18T12:11:42.994Z,34.53
2023-11-18T12:12:42.931Z,34.53
2023-11-18T12:13:42.885Z,34.63
2023-11-18T12:14:42.901Z,34.63
2023-11-18T12:15:42.856Z,34.53
2023-11-18T12:16:42.872Z,34.63
2023-11-18T12:17:42.886Z,34.53
2023-11-18T12:18:42.870Z,34.53
2023-11-18T12:19:46.455Z,34.63
2023-11-18T12:20:42.797Z,34.53
2023-11-18T12:21:42.819Z,34.53
2023-11-18T12:22:42.792Z,34.63
2023-11-18T12:23:42.793Z,34.53
2023-11-18T12:24:42.780Z,34.53
2023-11-18T12:25:42.753Z,34.53
2023-11-18T12:26:42.735Z,34.63
2023-11-18T12:27:42.749Z,34.63
2023-11-18T12:28:42.717Z,34.63
2023-11-18T12:29:42.765Z,34.53
2023-11-18T12:30:42.761Z,34.53
2023-11-18T12:31:42.750Z,34.43
2023-11-18T12:32:42.749Z,34.43
2023-11-18T12:33:42.752Z,34.43
2023-11-18T12:34:42.728Z,34.43
2023-11-18T12:35:42.696Z,34.45
2023-11-18T12:36:42.660Z,34.45
2023-11-18T12:37:42.630Z,34.45
2023-11-18T12:38:42.624Z,34.45
2023-11-18T12:39:42.682Z,34.45
2023-11-18T12:40:42.629Z,34.45
2023-11-18T12:41:42.688Z,34.45
2023-11-18T12:42:42.572Z,34.55
2023-11-18T12:43:42.624Z,34.45
2023-11-18T12:44:42.642Z,34.45
2023-11-18T12:45:42.693Z,34.45
2023-11-18T12:46:42.564Z,34.45
2023-11-18T12:47:42.627Z,34.45
2023-11-18T12:48:42.553Z,34.45
2023-11-18T12:49:42.574Z,34.45
2023-11-18T12:50:42.535Z,34.45
2023-11-18T12:51:42.536Z,34.45
2023-11-18T12:52:42.546Z,34.45
2023-11-18T12:53:42.477Z,34.34